createdAt,value
2018-07-31T00:00:40.853Z,97877.06
2018-07-31T00:03:08.489Z,97876.92
2018-07-31T00:05:36.191Z,97880.70
2018-07-31T00:08:04.064Z,97882.36
2018-07-31T00:10:31.718Z,97874.75
2018-07-31T00:12:59.456Z,97878.53
2018-07-31T00:15:27.048Z,97878.44
2018-07-31T00:17:54.721Z,97879.55
2018-07-31T00:20:22.367Z,97875.59
2018-07-31T00:22:50.343Z,97879.95
2018-07-31T00:25:18.129Z,97874.61
2018-07-31T00:27:45.758Z,97880.31
2018-07-31T00:30:13.396Z,97873.19
2018-07-31T00:32:41.113Z,97877.81
2018-07-31T00:35:08.731Z,97881.67
2018-07-31T00:37:36.479Z,97876.56
2018-07-31T00:40:04.177Z,97881.27
2018-07-31T00:42:31.902Z,97875.22
2018-07-31T00:44:59.581Z,97867.67
2018-07-31T00:47:27.267Z,97865.88
2018-07-31T00:49:54.875Z,97872.73
2018-07-31T00:52:22.530Z,97869.45
2018-07-31T00:54:50.107Z,97870.14
2018-07-31T00:57:17.936Z,97864.51
2018-07-31T00:59:45.527Z,97861.58
2018-07-31T01:02:13.199Z,97864.18
2018-07-31T01:04:40.857Z,97860.73
2018-07-31T01:07:08.557Z,97862.19
2018-07-31T01:09:37.232Z,97854.41
2018-07-31T01:12:05.072Z,97856.73
2018-07-31T01:14:32.671Z,97856.58
2018-07-31T01:17:00.444Z,97860.33
2018-07-31T01:19:28.128Z,97862.36
2018-07-31T01:21:55.760Z,97855.56
2018-07-31T01:24:23.514Z,97861.61
2018-07-31T01:26:51.124Z,97862.42
2018-07-31T01:29:18.763Z,97857.74
2018-07-31T01:31:46.345Z,97854.31
2018-07-31T01:34:13.979Z,97855.48
2018-07-31T01:36:41.644Z,97854.38
2018-07-31T01:39:10.949Z,97855.97
2018-07-31T01:41:38.604Z,97853.45
2018-07-31T01:44:06.267Z,97857.39
2018-07-31T01:46:33.859Z,97861.16
2018-07-31T01:49:01.495Z,97855.64
2018-07-31T01:51:29.161Z,97853.98
2018-07-31T01:53:56.767Z,97851.14
2018-07-31T01:56:24.449Z,97847.70
2018-07-31T01:58:52.024Z,97847.53
2018-07-31T02:01:19.609Z,97845.78
2018-07-31T02:03:47.261Z,97842.27
2018-07-31T02:06:14.967Z,97843.86
2018-07-31T02:08:42.601Z,97837.50
2018-07-31T02:11:10.212Z,97836.42
2018-07-31T02:13:37.799Z,97842.11
2018-07-31T02:16:05.478Z,97835.06
2018-07-31T02:18:33.102Z,97835.48
2018-07-31T02:21:00.745Z,97835.91
2018-07-31T02:23:28.371Z,97836.25
2018-07-31T02:25:55.983Z,97835.91
2018-07-31T02:28:23.803Z,97835.81
2018-07-31T02:30:51.267Z,97833.49
2018-07-31T02:33:18.940Z,97838.31
2018-07-31T02:35:47.295Z,97831.55
2018-07-31T02:38:14.870Z,97838.56
2018-07-31T02:40:42.603Z,97835.05
2018-07-31T02:43:10.199Z,97839.39
2018-07-31T02:45:37.811Z,97835.45
2018-07-31T02:48:06.060Z,97837.36
2018-07-31T02:50:33.628Z,97840.36
2018-07-31T02:53:01.241Z,97841.47
2018-07-31T02:55:28.955Z,97838.74
2018-07-31T02:57:56.710Z,97841.87
2018-07-31T03:00:24.317Z,97841.53
2018-07-31T03:02:51.952Z,97843.95
2018-07-31T03:05:19.544Z,97843.53
2018-07-31T03:07:48.156Z,97839.94
2018-07-31T03:10:15.843Z,97844.11
2018-07-31T03:12:43.553Z,97840.09
2018-07-31T03:15:11.526Z,97844.29
2018-07-31T03:17:39.245Z,97835.77
2018-07-31T03:20:07.692Z,97835.67
2018-07-31T03:22:35.545Z,97837.19
2018-07-31T03:25:03.572Z,97839.19
2018-07-31T03:27:31.267Z,97834.16
2018-07-31T03:29:58.903Z,97834.34
2018-07-31T03:32:26.569Z,97837.58
2018-07-31T03:34:54.267Z,97837.85
2018-07-31T03:37:21.904Z,97830.98
2018-07-31T03:39:49.575Z,97835.92
2018-07-31T03:42:17.239Z,97836.48
2018-07-31T03:44:44.848Z,97832.71
2018-07-31T03:47:12.543Z,97836.06
2018-07-31T03:49:40.120Z,97841.56
2018-07-31T03:52:07.785Z,97842.08
2018-07-31T03:54:35.472Z,97843.36
2018-07-31T03:57:03.132Z,97841.47
2018-07-31T03:59:30.818Z,97841.03
2018-07-31T04:01:58.494Z,97844.27
2018-07-31T04:04:26.079Z,97845.95
2018-07-31T04:06:53.864Z,97846.71
2018-07-31T04:09:22.573Z,97845.73
2018-07-31T04:11:50.235Z,97848.33
2018-07-31T04:14:17.898Z,97848.70
2018-07-31T04:16:45.579Z,97846.91
2018-07-31T04:19:13.209Z,97847.14
2018-07-31T04:21:40.852Z,97847.95
2018-07-31T04:24:08.523Z,97848.76
2018-07-31T04:26:36.261Z,97846.69
2018-07-31T04:29:03.869Z,97850.61
2018-07-31T04:31:31.504Z,97851.22
2018-07-31T04:33:59.182Z,97848.52
2018-07-31T04:36:26.762Z,97851.70
2018-07-31T04:38:54.431Z,97858.31
2018-07-31T04:41:22.098Z,97853.30
2018-07-31T04:43:49.699Z,97851.73
2018-07-31T04:46:17.444Z,97849.42
2018-07-31T04:48:45.184Z,97855.38
2018-07-31T04:51:12.850Z,97850.03
2018-07-31T04:53:40.483Z,97851.21
2018-07-31T04:56:08.127Z,97853.05
2018-07-31T04:58:35.768Z,97854.50
2018-07-31T05:01:03.452Z,97849.22
2018-07-31T05:03:31.165Z,97850.25
2018-07-31T05:05:58.835Z,97853.33
2018-07-31T05:08:26.568Z,97856.68
2018-07-31T05:10:54.272Z,97858.97
2018-07-31T05:13:21.971Z,97858.90
2018-07-31T05:15:49.623Z,97856.81
2018-07-31T05:18:17.364Z,97856.23
2018-07-31T05:20:45.376Z,97862.34
2018-07-31T05:23:13.079Z,97865.02
2018-07-31T05:25:40.717Z,97864.86
2018-07-31T05:28:08.464Z,97866.03
2018-07-31T05:30:36.151Z,97863.74
2018-07-31T05:33:04.393Z,97864.33
2018-07-31T05:35:32.032Z,97861.66
2018-07-31T05:37:59.728Z,97860.77
2018-07-31T05:40:27.316Z,97873.39
2018-07-31T05:42:54.982Z,97867.53
2018-07-31T05:45:22.706Z,97876.62
2018-07-31T05:47:50.365Z,97874.34
2018-07-31T05:50:18.095Z,97867.72
2018-07-31T05:52:46.164Z,97872.74
2018-07-31T05:55:13.749Z,97875.41
2018-07-31T05:57:41.393Z,97872.12
2018-07-31T06:00:09.192Z,97870.42
2018-07-31T06:02:36.992Z,97858.87
2018-07-31T06:05:04.687Z,97860.91
2018-07-31T06:07:32.372Z,97867.34
2018-07-31T06:10:00.013Z,97863.38
2018-07-31T06:12:27.788Z,97865.83
2018-07-31T06:14:55.403Z,97865.27
2018-07-31T06:17:23.181Z,97870.67
2018-07-31T06:19:50.759Z,97868.13
2018-07-31T06:22:18.479Z,97867.28
2018-07-31T06:24:46.051Z,97873.28
2018-07-31T06:27:13.652Z,97880.13
2018-07-31T06:29:41.249Z,97873.45
2018-07-31T06:32:08.887Z,97871.27
2018-07-31T06:34:36.495Z,97871.29
2018-07-31T06:37:04.279Z,97870.33
2018-07-31T06:39:31.907Z,97879.19
2018-07-31T06:41:59.519Z,97885.64
2018-07-31T06:44:27.125Z,97890.81
2018-07-31T06:46:54.761Z,97886.99
2018-07-31T06:49:22.429Z,97881.05
2018-07-31T06:51:50.036Z,97880.35
2018-07-31T06:54:17.919Z,97879.23
2018-07-31T06:56:45.524Z,97877.60
2018-07-31T06:59:13.210Z,97878.67
2018-07-31T07:01:40.808Z,97882.36
2018-07-31T07:04:08.556Z,97883.23
2018-07-31T07:06:36.214Z,97879.56
2018-07-31T07:09:05.872Z,97876.91
2018-07-31T07:11:33.466Z,97883.91
2018-07-31T07:14:01.107Z,97882.36
2018-07-31T07:16:28.732Z,97885.30
2018-07-31T07:18:56.314Z,97883.73
2018-07-31T07:21:23.915Z,97886.36
2018-07-31T07:23:51.484Z,97884.57
2018-07-31T07:26:19.068Z,97888.47
2018-07-31T07:28:46.929Z,97894.84
2018-07-31T07:31:14.581Z,97897.48
2018-07-31T07:33:42.174Z,97895.22
2018-07-31T07:36:09.784Z,97897.72
2018-07-31T07:38:37.348Z,97896.58
2018-07-31T07:41:05.056Z,97894.39
2018-07-31T07:43:32.663Z,97889.04
2018-07-31T07:46:00.259Z,97895.85
2018-07-31T07:48:27.844Z,97892.92
2018-07-31T07:50:55.592Z,97880.56
2018-07-31T07:53:23.272Z,97881.23
2018-07-31T07:55:50.868Z,97878.48
2018-07-31T07:58:18.504Z,97883.84
2018-07-31T08:00:46.108Z,97873.02
2018-07-31T08:03:13.706Z,97886.98
2018-07-31T08:05:41.430Z,97880.30
2018-07-31T08:08:09.613Z,97882.25
2018-07-31T08:10:38.556Z,97886.11
2018-07-31T08:13:06.232Z,97888.08
2018-07-31T08:15:33.923Z,97888.89
2018-07-31T08:18:01.483Z,97890.15
2018-07-31T08:20:29.124Z,97888.69
2018-07-31T08:22:56.742Z,97889.66
2018-07-31T08:25:24.721Z,97888.28
2018-07-31T08:27:52.404Z,97888.16
2018-07-31T08:30:20.020Z,97893.05
2018-07-31T08:32:47.644Z,97892.94
2018-07-31T08:35:15.444Z,97895.89
2018-07-31T08:37:43.166Z,97895.03
2018-07-31T08:40:10.844Z,97888.83
2018-07-31T08:42:38.536Z,97892.63
2018-07-31T08:45:07.683Z,97891.38
2018-07-31T08:47:35.312Z,97886.36
2018-07-31T08:50:03.012Z,97887.80
2018-07-31T08:52:30.623Z,97886.63
2018-07-31T08:54:58.207Z,97887.88
2018-07-31T08:57:25.905Z,97888.22
2018-07-31T08:59:53.498Z,97882.33
2018-07-31T09:02:21.133Z,97883.98
2018-07-31T09:04:48.854Z,97881.40
2018-07-31T09:07:16.500Z,97873.95
2018-07-31T09:09:44.139Z,97874.45
2018-07-31T09:12:13.030Z,97874.84
2018-07-31T09:14:40.615Z,97869.39
2018-07-31T09:17:08.540Z,97861.97
2018-07-31T09:19:36.172Z,97859.88
2018-07-31T09:22:03.804Z,97863.14
2018-07-31T09:24:31.433Z,97858.45
2018-07-31T09:26:59.043Z,97852.78
2018-07-31T09:29:27.004Z,97846.77
2018-07-31T09:31:54.592Z,97850.00
2018-07-31T09:34:22.223Z,97846.31
2018-07-31T09:36:49.798Z,97849.39
2018-07-31T09:39:17.385Z,97849.92
2018-07-31T09:41:44.980Z,97848.62
2018-07-31T09:44:12.611Z,97850.89
2018-07-31T09:46:40.204Z,97847.09
2018-07-31T09:49:07.856Z,97847.39
2018-07-31T09:51:35.464Z,97848.36
2018-07-31T09:54:03.174Z,97845.52
2018-07-31T09:56:30.870Z,97840.34
2018-07-31T09:58:58.535Z,97843.67
2018-07-31T10:01:26.471Z,97846.09
2018-07-31T10:03:54.116Z,97843.16
2018-07-31T10:06:21.730Z,97837.72
2018-07-31T10:08:49.348Z,97840.14
2018-07-31T10:11:17.058Z,97837.47
2018-07-31T10:13:44.945Z,97835.85
2018-07-31T10:16:12.523Z,97830.72
2018-07-31T10:18:40.716Z,97831.32
2018-07-31T10:21:08.383Z,97830.66
2018-07-31T10:23:35.960Z,97820.95
2018-07-31T10:26:03.778Z,97821.61
2018-07-31T10:28:31.448Z,97818.27
2018-07-31T10:30:59.533Z,97823.69
2018-07-31T10:33:27.132Z,97814.49
2018-07-31T10:36:15.462Z,97820.45
2018-07-31T10:38:43.570Z,97813.20
2018-07-31T10:41:11.196Z,97811.75
2018-07-31T10:43:38.834Z,97812.20
2018-07-31T10:46:06.487Z,97813.02
2018-07-31T10:48:34.149Z,97811.89
2018-07-31T10:51:48.845Z,97809.45
2018-07-31T10:54:17.939Z,97813.36
2018-07-31T10:56:45.659Z,97810.48
2018-07-31T10:59:13.368Z,97811.61
2018-07-31T11:01:41.039Z,97811.20
2018-07-31T11:04:08.720Z,97814.30
2018-07-31T11:06:36.444Z,97802.91
2018-07-31T11:09:07.385Z,97810.33
2018-07-31T11:11:35.796Z,97802.52
2018-07-31T11:14:04.032Z,97804.27
2018-07-31T11:16:31.646Z,97806.01
2018-07-31T11:18:59.318Z,97804.45
2018-07-31T11:21:26.948Z,97804.98
2018-07-31T11:23:54.575Z,97798.74
2018-07-31T11:26:22.205Z,97801.56
2018-07-31T11:28:50.069Z,97799.04
2018-07-31T11:31:20.876Z,97796.53
2018-07-31T11:33:49.069Z,97802.38
2018-07-31T11:36:16.756Z,97803.72
2018-07-31T11:38:44.396Z,97805.30
2018-07-31T11:41:12.176Z,97796.23
2018-07-31T11:43:39.848Z,97795.00
2018-07-31T11:46:07.719Z,97802.78
2018-07-31T11:48:35.525Z,97803.25
2018-07-31T11:51:03.318Z,97801.84
2018-07-31T11:53:30.959Z,97799.13
2018-07-31T11:55:58.834Z,97798.20
2018-07-31T11:58:26.597Z,97795.19
2018-07-31T12:00:54.252Z,97800.70
2018-07-31T12:03:21.942Z,97806.05
2018-07-31T12:05:49.906Z,97804.66
2018-07-31T12:08:17.640Z,97808.44
2018-07-31T12:10:45.280Z,97803.40
2018-07-31T12:13:13.642Z,97810.64
2018-07-31T12:15:41.721Z,97814.42
2018-07-31T12:18:09.453Z,97814.13
2018-07-31T12:20:37.220Z,97812.44
2018-07-31T12:23:04.835Z,97808.44
2018-07-31T12:25:32.561Z,97805.91
2018-07-31T12:28:00.179Z,97809.80
2018-07-31T12:30:27.824Z,97804.06
2018-07-31T12:32:55.515Z,97812.31
2018-07-31T12:35:23.145Z,97809.50
2018-07-31T12:37:50.963Z,97812.55
2018-07-31T12:40:18.664Z,97804.10
2018-07-31T12:42:46.423Z,97809.45
2018-07-31T12:45:14.049Z,97804.48
2018-07-31T12:47:41.756Z,97812.06
2018-07-31T12:50:09.479Z,97813.87
2018-07-31T12:52:37.101Z,97808.75
2018-07-31T12:55:04.775Z,97805.08
2018-07-31T12:57:32.512Z,97803.75
2018-07-31T13:00:00.339Z,97808.56
2018-07-31T13:02:28.025Z,97810.78
2018-07-31T13:04:55.657Z,97806.11
2018-07-31T13:07:23.281Z,97809.21
2018-07-31T13:09:51.188Z,97809.91
2018-07-31T13:12:18.867Z,97810.20
2018-07-31T13:14:46.538Z,97804.46
2018-07-31T13:17:14.193Z,97799.45
2018-07-31T13:19:41.843Z,97795.53
2018-07-31T13:22:09.521Z,97790.41
2018-07-31T13:24:37.916Z,97787.94
2018-07-31T13:27:05.635Z,97788.05
2018-07-31T13:29:33.246Z,97780.54
2018-07-31T13:32:00.898Z,97777.76
2018-07-31T13:34:28.538Z,97773.36
2018-07-31T13:36:56.718Z,97780.35
2018-07-31T13:39:24.336Z,97782.52
2018-07-31T13:41:51.974Z,97777.38
2018-07-31T13:44:19.562Z,97772.00
2018-07-31T13:46:47.273Z,97773.11
2018-07-31T13:49:14.892Z,97768.13
2018-07-31T13:51:42.542Z,97773.97
2018-07-31T13:54:10.204Z,97771.80
2018-07-31T13:56:37.835Z,97765.89
2018-07-31T13:59:05.484Z,97761.41
2018-07-31T14:01:33.169Z,97763.64
2018-07-31T14:04:00.822Z,97767.30
2018-07-31T14:06:28.456Z,97765.13
2018-07-31T14:08:56.137Z,97768.06
2018-07-31T14:11:23.826Z,97768.77
2018-07-31T14:13:51.553Z,97760.72
2018-07-31T14:16:19.202Z,97760.05
2018-07-31T14:18:46.839Z,97765.92
2018-07-31T14:21:14.493Z,97760.05
2018-07-31T14:23:42.119Z,97761.94
2018-07-31T14:26:09.861Z,97756.25
2018-07-31T14:28:37.581Z,97764.12
2018-07-31T14:31:05.271Z,97767.88
2018-07-31T14:33:32.964Z,97769.13
2018-07-31T14:36:00.599Z,97764.59
2018-07-31T14:38:28.307Z,97768.44
2018-07-31T14:40:55.909Z,97763.12
2018-07-31T14:43:23.594Z,97761.67
2018-07-31T14:45:51.398Z,97762.39
2018-07-31T14:48:19.176Z,97763.45
2018-07-31T14:50:46.769Z,97757.72
2018-07-31T14:53:14.757Z,97752.14
2018-07-31T14:55:42.368Z,97752.34
2018-07-31T14:58:09.967Z,97748.45
2018-07-31T15:00:37.582Z,97755.51
2018-07-31T15:03:05.203Z,97757.61
2018-07-31T15:05:32.799Z,97759.93
2018-07-31T15:08:00.410Z,97761.62
2018-07-31T15:10:28.039Z,97755.44
2018-07-31T15:12:55.635Z,97757.66
2018-07-31T15:15:23.240Z,97752.09
2018-07-31T15:17:50.953Z,97754.17
2018-07-31T15:20:18.584Z,97746.61
2018-07-31T15:22:46.227Z,97748.23
2018-07-31T15:25:13.796Z,97753.69
2018-07-31T15:27:41.372Z,97756.17
2018-07-31T15:30:08.999Z,97758.03
2018-07-31T15:32:36.614Z,97751.05
2018-07-31T15:35:04.408Z,97750.38
2018-07-31T15:37:32.102Z,97749.50
2018-07-31T15:39:59.735Z,97751.89
2018-07-31T15:42:27.428Z,97751.34
2018-07-31T15:44:55.067Z,97748.59
2018-07-31T15:47:22.701Z,97741.17
2018-07-31T15:49:50.352Z,97748.36
2018-07-31T15:52:17.950Z,97741.66
2018-07-31T15:54:45.543Z,97748.48
2018-07-31T15:57:13.210Z,97751.42
2018-07-31T15:59:40.907Z,97743.58
2018-07-31T16:02:08.459Z,97741.83
2018-07-31T16:04:36.039Z,97741.25
2018-07-31T16:07:03.849Z,97744.99
2018-07-31T16:09:31.671Z,97741.44
2018-07-31T16:11:59.301Z,97744.59
2018-07-31T16:14:26.984Z,97739.48
2018-07-31T16:16:54.557Z,97748.42
2018-07-31T16:19:22.239Z,97748.91
2018-07-31T16:21:50.772Z,97741.85
2018-07-31T16:24:18.379Z,97746.06
2018-07-31T16:26:45.999Z,97741.95
2018-07-31T16:29:13.701Z,97736.33
2018-07-31T16:31:41.400Z,97742.81
2018-07-31T16:34:09.199Z,97742.97
2018-07-31T16:36:36.815Z,97741.33
2018-07-31T16:39:07.205Z,97744.77
2018-07-31T16:41:34.775Z,97736.25
2018-07-31T16:44:02.540Z,97741.62
2018-07-31T16:46:30.278Z,97744.72
2018-07-31T16:48:57.876Z,97737.86
2018-07-31T16:51:25.566Z,97738.56
2018-07-31T16:53:53.132Z,97740.38
2018-07-31T16:56:20.823Z,97737.89
2018-07-31T16:58:48.455Z,97737.77
2018-07-31T17:01:16.091Z,97733.97
2018-07-31T17:03:43.711Z,97733.60
2018-07-31T17:06:11.582Z,97725.88
2018-07-31T17:08:39.232Z,97729.87
2018-07-31T17:11:06.944Z,97729.08
2018-07-31T17:13:34.685Z,97725.88
2018-07-31T17:16:02.244Z,97724.43
2018-07-31T17:18:30.280Z,97734.27
2018-07-31T17:20:58.000Z,97733.09
2018-07-31T17:23:25.973Z,97738.66
2018-07-31T17:25:53.664Z,97732.02
2018-07-31T17:28:21.504Z,97740.34
2018-07-31T17:30:49.779Z,97741.50
2018-07-31T17:33:17.392Z,97742.25
2018-07-31T17:35:44.971Z,97745.62
2018-07-31T17:38:12.617Z,97749.10
2018-07-31T17:40:40.227Z,97751.00
2018-07-31T17:43:07.858Z,97751.27
2018-07-31T17:45:35.450Z,97754.09
2018-07-31T17:48:03.049Z,97752.39
2018-07-31T17:50:30.756Z,97755.63
2018-07-31T17:52:58.435Z,97763.40
2018-07-31T17:55:26.032Z,97760.95
2018-07-31T17:57:53.646Z,97762.30
2018-07-31T18:00:21.220Z,97765.00
2018-07-31T18:02:48.861Z,97766.17
2018-07-31T18:05:16.544Z,97774.53
2018-07-31T18:07:44.157Z,97770.16
2018-07-31T18:10:11.787Z,97779.38
2018-07-31T18:12:39.498Z,97776.89
2018-07-31T18:15:07.340Z,97770.34
2018-07-31T18:17:34.967Z,97775.13
2018-07-31T18:20:02.667Z,97777.55
2018-07-31T18:22:30.319Z,97778.59
2018-07-31T18:24:57.927Z,97778.11
2018-07-31T18:27:25.636Z,97775.64
2018-07-31T18:29:53.572Z,97777.99
2018-07-31T18:32:21.174Z,97781.83
2018-07-31T18:34:48.881Z,97780.74
2018-07-31T18:37:16.480Z,97778.15
2018-07-31T18:39:44.078Z,97783.59
2018-07-31T18:42:11.751Z,97785.14
2018-07-31T18:44:39.365Z,97785.84
2018-07-31T18:47:07.253Z,97784.50
2018-07-31T18:49:34.912Z,97790.30
2018-07-31T18:52:02.532Z,97793.09
2018-07-31T18:54:30.183Z,97796.34
2018-07-31T18:56:57.888Z,97802.37
2018-07-31T18:59:25.964Z,97798.24
2018-07-31T19:01:53.685Z,97801.38
2018-07-31T19:04:21.375Z,97801.42
2018-07-31T19:06:49.155Z,97802.98
2018-07-31T19:09:16.779Z,97806.84
2018-07-31T19:11:44.418Z,97805.30
2018-07-31T19:14:12.050Z,97809.71
2018-07-31T19:16:40.869Z,97816.92
2018-07-31T19:19:08.541Z,97813.31
2018-07-31T19:21:37.011Z,97823.26
2018-07-31T19:24:04.681Z,97821.69
2018-07-31T19:26:32.375Z,97819.97
2018-07-31T19:29:00.139Z,97820.33
2018-07-31T19:31:27.893Z,97826.41
2018-07-31T19:33:55.729Z,97829.55
2018-07-31T19:36:23.587Z,97829.21
2018-07-31T19:38:51.363Z,97827.72
2018-07-31T19:41:19.049Z,97825.89
2018-07-31T19:43:46.716Z,97827.02
2018-07-31T19:46:14.419Z,97829.94
2018-07-31T19:48:42.102Z,97822.30
2018-07-31T19:51:09.972Z,97824.29
2018-07-31T19:53:37.618Z,97825.16
2018-07-31T19:56:05.971Z,97828.28
2018-07-31T19:58:33.753Z,97835.09
2018-07-31T20:01:01.559Z,97832.56
2018-07-31T20:03:30.465Z,97833.49
2018-07-31T20:05:58.165Z,97838.27
2018-07-31T20:08:26.269Z,97838.86
2018-07-31T20:10:54.089Z,97838.41
2018-07-31T20:13:21.923Z,97841.67
2018-07-31T20:15:49.668Z,97842.59
2018-07-31T20:18:17.600Z,97837.20
2018-07-31T20:20:45.251Z,97846.17
2018-07-31T20:23:12.897Z,97840.55
2018-07-31T20:25:40.617Z,97848.02
2018-07-31T20:28:08.384Z,97846.83
2018-07-31T20:30:36.185Z,97845.64
2018-07-31T20:33:03.917Z,97858.73
2018-07-31T20:35:31.771Z,97852.78
2018-07-31T20:37:59.649Z,97856.86
2018-07-31T20:40:27.324Z,97862.49
2018-07-31T20:42:55.111Z,97871.91
2018-07-31T20:45:23.175Z,97868.38
2018-07-31T20:47:52.254Z,97865.73
2018-07-31T20:50:19.989Z,97864.98
2018-07-31T20:52:47.614Z,97869.26
2018-07-31T20:55:15.287Z,97875.72
2018-07-31T20:57:44.178Z,97864.14
2018-07-31T21:00:11.967Z,97865.52
2018-07-31T21:02:39.692Z,97864.45
2018-07-31T21:05:07.498Z,97866.34
2018-07-31T21:07:35.157Z,97863.20
2018-07-31T21:10:03.123Z,97868.07
2018-07-31T21:12:30.764Z,97875.96
2018-07-31T21:14:58.434Z,97873.27
2018-07-31T21:17:26.244Z,97870.17
2018-07-31T21:19:53.901Z,97872.66
2018-07-31T21:22:21.851Z,97873.84
2018-07-31T21:24:49.689Z,97871.91
2018-07-31T21:27:17.299Z,97885.98
2018-07-31T21:29:45.083Z,97881.55
2018-07-31T21:32:13.860Z,97878.98
2018-07-31T21:34:41.579Z,97879.61
2018-07-31T21:37:09.388Z,97877.56
2018-07-31T21:39:37.034Z,97880.63
2018-07-31T21:42:04.652Z,97876.81
2018-07-31T21:44:32.528Z,97880.20
2018-07-31T21:47:00.212Z,97876.14
2018-07-31T21:49:27.983Z,97874.55
2018-07-31T21:51:55.796Z,97878.23
2018-07-31T21:54:23.462Z,97880.47
2018-07-31T21:56:51.487Z,97882.27
2018-07-31T21:59:19.172Z,97881.38
2018-07-31T22:01:46.844Z,97884.15
2018-07-31T22:04:14.620Z,97887.09
2018-07-31T22:06:42.263Z,97886.33
2018-07-31T22:09:10.132Z,97884.98
2018-07-31T22:11:37.763Z,97884.83
2018-07-31T22:14:05.415Z,97888.05
2018-07-31T22:16:33.073Z,97889.02
2018-07-31T22:19:00.691Z,97896.06
2018-07-31T22:21:28.501Z,97894.55
2018-07-31T22:23:56.216Z,97895.84
2018-07-31T22:26:23.993Z,97895.56
2018-07-31T22:28:51.936Z,97892.95
2018-07-31T22:31:19.659Z,97893.77
2018-07-31T22:33:47.446Z,97896.19
2018-07-31T22:36:15.081Z,97904.50
2018-07-31T22:38:42.799Z,97902.02
2018-07-31T22:41:10.955Z,97903.70
2018-07-31T22:43:38.602Z,97906.63
2018-07-31T22:46:06.341Z,97907.59
2018-07-31T22:48:34.163Z,97915.23
2018-07-31T22:51:01.780Z,97909.15
2018-07-31T22:53:30.034Z,97912.37
2018-07-31T22:55:57.867Z,97915.14
2018-07-31T22:58:25.556Z,97915.06
2018-07-31T23:00:53.438Z,97911.74
2018-07-31T23:03:21.131Z,97924.27
2018-07-31T23:05:49.304Z,97922.84
2018-07-31T23:08:19.003Z,97918.66
2018-07-31T23:10:46.635Z,97926.28
2018-07-31T23:13:14.268Z,97921.45
2018-07-31T23:15:41.985Z,97921.59
2018-07-31T23:18:09.731Z,97916.73
2018-07-31T23:20:37.432Z,97917.60
2018-07-31T23:23:05.377Z,97924.56
2018-07-31T23:25:32.992Z,97916.77
2018-07-31T23:28:00.689Z,97923.47
2018-07-31T23:30:28.380Z,97920.77
2018-07-31T23:32:56.032Z,97925.77
2018-07-31T23:35:23.676Z,97927.36
2018-07-31T23:37:51.583Z,97924.70
2018-07-31T23:40:19.206Z,97920.63
2018-07-31T23:42:47.599Z,97925.84
2018-07-31T23:45:15.281Z,97925.37
2018-07-31T23:47:43.219Z,97919.86
2018-07-31T23:50:10.912Z,97922.27
2018-07-31T23:52:38.716Z,97933.30
2018-07-31T23:55:06.399Z,97929.16
2018-07-31T23:57:34.023Z,97931.75
